sensor_id;sensor_type;location;lat;lon;timestamp;pressure;altitude;pressure_sealevel;temperature;humidity
41515;BME280;27247;48.020;16.720;2022-08-21T00:02:14;99529.06;;;18.17;100.00
41515;BME280;27247;48.020;16.720;2022-08-21T00:06:24;99529.50;;;18.14;100.00
41515;BME280;27247;48.020;16.720;2022-08-21T00:10:35;99522.13;;;18.22;100.00
41515;BME280;27247;48.020;16.720;2022-08-21T00:14:45;99519.53;;;18.15;100.00
41515;BME280;27247;48.020;16.720;2022-08-21T00:18:56;99507.66;;;18.16;100.00
41515;BME280;27247;48.020;16.720;2022-08-21T00:23:06;99518.00;;;18.19;100.00
41515;BME280;27247;48.020;16.720;2022-08-21T00:27:17;99518.34;;;18.23;100.00
41515;BME280;27247;48.020;16.720;2022-08-21T00:31:27;99523.06;;;18.27;99.53
41515;BME280;27247;48.020;16.720;2022-08-21T00:35:40;99518.72;;;18.26;98.86
41515;BME280;27247;48.020;16.720;2022-08-21T00:39:51;99507.44;;;18.29;98.69
41515;BME280;27247;48.020;16.720;2022-08-21T00:44:04;99510.59;;;18.26;98.25
41515;BME280;27247;48.020;16.720;2022-08-21T00:48:16;99512.59;;;18.31;98.33
41515;BME280;27247;48.020;16.720;2022-08-21T00:52:28;99504.97;;;18.28;97.66
41515;BME280;27247;48.020;16.720;2022-08-21T00:56:40;99496.59;;;18.29;98.27
41515;BME280;27247;48.020;16.720;2022-08-21T01:00:50;99489.44;;;18.23;98.16
41515;BME280;27247;48.020;16.720;2022-08-21T01:05:01;99479.66;;;18.22;97.38
41515;BME280;27247;48.020;16.720;2022-08-21T01:09:12;99478.25;;;18.19;97.65
41515;BME280;27247;48.020;16.720;2022-08-21T01:13:23;99478.72;;;18.16;97.68
41515;BME280;27247;48.020;16.720;2022-08-21T01:17:35;99480.47;;;18.11;97.72
41515;BME280;27247;48.020;16.720;2022-08-21T01:21:46;99473.66;;;18.08;98.67
41515;BME280;27247;48.020;16.720;2022-08-21T01:25:56;99465.66;;;18.02;98.76
41515;BME280;27247;48.020;16.720;2022-08-21T01:30:14;99452.38;;;18.00;98.75
41515;BME280;27247;48.020;16.720;2022-08-21T01:34:25;99446.59;;;17.97;98.61
41515;BME280;27247;48.020;16.720;2022-08-21T01:38:36;99463.19;;;18.00;98.69
41515;BME280;27247;48.020;16.720;2022-08-21T01:42:46;99458.00;;;17.99;98.37
41515;BME280;27247;48.020;16.720;2022-08-21T01:46:59;99448.97;;;18.05;98.44
41515;BME280;27247;48.020;16.720;2022-08-21T01:51:10;99448.84;;;18.11;97.79
41515;BME280;27247;48.020;16.720;2022-08-21T01:55:21;99439.69;;;18.12;97.51
41515;BME280;27247;48.020;16.720;2022-08-21T01:59:34;99436.84;;;18.19;97.58
41515;BME280;27247;48.020;16.720;2022-08-21T02:03:44;99435.69;;;18.15;98.04
41515;BME280;27247;48.020;16.720;2022-08-21T02:07:55;99430.28;;;18.15;97.87
41515;BME280;27247;48.020;16.720;2022-08-21T02:12:05;99430.84;;;18.17;98.03
41515;BME280;27247;48.020;16.720;2022-08-21T02:16:16;99421.69;;;18.18;97.82
41515;BME280;27247;48.020;16.720;2022-08-21T02:20:33;99431.22;;;18.21;97.40
41515;BME280;27247;48.020;16.720;2022-08-21T02:24:44;99430.97;;;18.22;97.30
41515;BME280;27247;48.020;16.720;2022-08-21T02:28:55;99437.44;;;18.21;96.92
41515;BME280;27247;48.020;16.720;2022-08-21T02:33:06;99429.34;;;18.21;97.16
41515;BME280;27247;48.020;16.720;2022-08-21T02:37:17;99427.44;;;18.22;97.08
41515;BME280;27247;48.020;16.720;2022-08-21T02:41:27;99415.81;;;18.21;97.77
41515;BME280;27247;48.020;16.720;2022-08-21T02:45:39;99415.47;;;18.17;98.08
41515;BME280;27247;48.020;16.720;2022-08-21T02:49:49;99422.88;;;18.10;98.81
41515;BME280;27247;48.020;16.720;2022-08-21T02:53:59;99419.56;;;18.08;99.33
41515;BME280;27247;48.020;16.720;2022-08-21T02:58:10;99426.16;;;18.12;99.74
41515;BME280;27247;48.020;16.720;2022-08-21T03:02:21;99427.22;;;18.11;99.52
41515;BME280;27247;48.020;16.720;2022-08-21T03:06:31;99435.78;;;18.08;99.32
41515;BME280;27247;48.020;16.720;2022-08-21T03:10:45;99435.56;;;18.10;98.82
41515;BME280;27247;48.020;16.720;2022-08-21T03:14:56;99433.69;;;18.10;99.00
41515;BME280;27247;48.020;16.720;2022-08-21T03:19:07;99439.69;;;18.12;99.15
41515;BME280;27247;48.020;16.720;2022-08-21T03:23:18;99436.84;;;18.19;99.05
41515;BME280;27247;48.020;16.720;2022-08-21T03:27:29;99432.84;;;18.22;99.16
41515;BME280;27247;48.020;16.720;2022-08-21T03:31:40;99438.75;;;18.18;98.64
41515;BME280;27247;48.020;16.720;2022-08-21T03:35:59;99446.03;;;18.18;98.78
41515;BME280;27247;48.020;16.720;2022-08-21T03:40:12;99444.97;;;18.19;99.06
41515;BME280;27247;48.020;16.720;2022-08-21T03:44:23;99437.44;;;18.21;99.00
41515;BME280;27247;48.020;16.720;2022-08-21T03:48:35;99432.63;;;18.23;99.14
41515;BME280;27247;48.020;16.720;2022-08-21T03:52:45;99437.91;;;18.18;98.98
41515;BME280;27247;48.020;16.720;2022-08-21T03:56:56;99442.38;;;18.24;98.43
41515;BME280;27247;48.020;16.720;2022-08-21T04:01:07;99444.84;;;18.26;98.34
41515;BME280;27247;48.020;16.720;2022-08-21T04:05:19;99452.16;;;18.25;98.45
41515;BME280;27247;48.020;16.720;2022-08-21T04:09:40;99450.72;;;18.23;98.09
41515;BME280;27247;48.020;16.720;2022-08-21T04:13:50;99455.91;;;18.24;98.48
41515;BME280;27247;48.020;16.720;2022-08-21T04:18:01;99462.72;;;18.27;97.85
41515;BME280;27247;48.020;16.720;2022-08-21T04:22:11;99473.31;;;18.28;96.96
41515;BME280;27247;48.020;16.720;2022-08-21T04:26:22;99475.31;;;18.33;96.88
41515;BME280;27247;48.020;16.720;2022-08-21T04:30:32;99465.09;;;18.35;96.21
41515;BME280;27247;48.020;16.720;2022-08-21T04:34:43;99479.31;;;18.30;96.37
41515;BME280;27247;48.020;16.720;2022-08-21T04:38:54;99478.63;;;18.35;96.32
41515;BME280;27247;48.020;16.720;2022-08-21T04:43:08;99483.19;;;18.34;96.02
41515;BME280;27247;48.020;16.720;2022-08-21T04:47:18;99482.16;;;18.35;96.30
41515;BME280;27247;48.020;16.720;2022-08-21T04:51:35;99485.44;;;18.37;95.34
41515;BME280;27247;48.020;16.720;2022-08-21T04:55:46;99488.50;;;18.41;95.62
41515;BME280;27247;48.020;16.720;2022-08-21T04:59:57;99487.56;;;18.47;95.39
41515;BME280;27247;48.020;16.720;2022-08-21T05:04:10;99480.25;;;18.47;95.48
41515;BME280;27247;48.020;16.720;2022-08-21T05:08:24;99477.78;;;18.58;94.67
41515;BME280;27247;48.020;16.720;2022-08-21T05:12:37;99483.19;;;18.58;94.56
41515;BME280;27247;48.020;16.720;2022-08-21T05:16:47;99482.72;;;18.61;94.59
41515;BME280;27247;48.020;16.720;2022-08-21T05:20:58;99486.28;;;18.61;93.44
41515;BME280;27247;48.020;16.720;2022-08-21T05:25:09;99509.38;;;18.75;93.97
41515;BME280;27247;48.020;16.720;2022-08-21T05:29:20;99496.84;;;18.98;94.37
41515;BME280;27247;48.020;16.720;2022-08-21T05:33:30;99498.03;;;19.02;94.68
41515;BME280;27247;48.020;16.720;2022-08-21T05:37:41;99495.44;;;19.07;94.58
41515;BME280;27247;48.020;16.720;2022-08-21T05:41:51;99504.00;;;19.16;94.52
41515;BME280;27247;48.020;16.720;2022-08-21T05:46:02;99502.47;;;19.20;93.40
41515;BME280;27247;48.020;16.720;2022-08-21T05:50:14;99503.72;;;19.29;92.67
41515;BME280;27247;48.020;16.720;2022-08-21T05:54:24;99496.97;;;19.43;92.42
41515;BME280;27247;48.020;16.720;2022-08-21T05:58:35;99497.06;;;19.48;90.19
41515;BME280;27247;48.020;16.720;2022-08-21T06:02:45;99500.00;;;19.58;90.93
41515;BME280;27247;48.020;16.720;2022-08-21T06:06:56;99506.91;;;19.66;89.76
41515;BME280;27247;48.020;16.720;2022-08-21T06:11:07;99503.81;;;19.74;89.38
41515;BME280;27247;48.020;16.720;2022-08-21T06:15:17;99508.28;;;19.80;89.51
41515;BME280;27247;48.020;16.720;2022-08-21T06:19:28;99501.97;;;19.91;88.21
41515;BME280;27247;48.020;16.720;2022-08-21T06:23:39;99494.50;;;19.98;89.00
41515;BME280;27247;48.020;16.720;2022-08-21T06:27:49;99515.13;;;19.99;87.39
41515;BME280;27247;48.020;16.720;2022-08-21T06:32:01;99504.97;;;20.06;87.00
41515;BME280;27247;48.020;16.720;2022-08-21T06:36:11;99510.72;;;20.10;87.00
41515;BME280;27247;48.020;16.720;2022-08-21T06:40:22;99508.34;;;20.30;86.84
41515;BME280;27247;48.020;16.720;2022-08-21T06:44:32;99511.63;;;20.32;86.18
41515;BME280;27247;48.020;16.720;2022-08-21T06:48:42;99517.31;;;20.48;86.49
41515;BME280;27247;48.020;16.720;2022-08-21T06:53:08;99520.41;;;20.73;84.11
41515;BME280;27247;48.020;16.720;2022-08-21T06:57:19;99490.59;;;20.78;83.28
41515;BME280;27247;48.020;16.720;2022-08-21T07:01:30;99501.41;;;20.73;83.16
41515;BME280;27247;48.020;16.720;2022-08-21T07:05:40;99501.47;;;20.78;83.98
41515;BME280;27247;48.020;16.720;2022-08-21T07:09:50;99491.94;;;20.76;83.84
41515;BME280;27247;48.020;16.720;2022-08-21T07:14:01;99498.53;;;20.63;83.32
41515;BME280;27247;48.020;16.720;2022-08-21T07:18:11;99505.38;;;20.65;83.76
41515;BME280;27247;48.020;16.720;2022-08-21T07:22:23;99500.75;;;20.66;83.82
41515;BME280;27247;48.020;16.720;2022-08-21T07:26:33;99500.84;;;20.71;84.02
41515;BME280;27247;48.020;16.720;2022-08-21T07:30:44;99492.03;;;20.81;82.76
41515;BME280;27247;48.020;16.720;2022-08-21T07:34:54;99492.34;;;20.84;83.08
41515;BME280;27247;48.020;16.720;2022-08-21T07:39:05;99498.75;;;20.95;82.94
41515;BME280;27247;48.020;16.720;2022-08-21T07:43:15;99495.72;;;20.91;82.68
41515;BME280;27247;48.020;16.720;2022-08-21T07:47:28;99495.47;;;20.93;83.23
41515;BME280;27247;48.020;16.720;2022-08-21T07:51:39;99494.06;;;20.90;82.27
41515;BME280;27247;48.020;16.720;2022-08-21T07:55:49;99487.50;;;20.86;82.63
41515;BME280;27247;48.020;16.720;2022-08-21T07:59:59;99499.75;;;20.89;82.99
41515;BME280;27247;48.020;16.720;2022-08-21T08:04:10;99493.63;;;20.98;82.98
41515;BME280;27247;48.020;16.720;2022-08-21T08:08:20;99487.44;;;21.03;82.01
41515;BME280;27247;48.020;16.720;2022-08-21T08:12:30;99490.16;;;21.03;82.93
41515;BME280;27247;48.020;16.720;2022-08-21T08:16:41;99488.56;;;21.07;82.42
41515;BME280;27247;48.020;16.720;2022-08-21T08:20:51;99481.63;;;21.16;82.04
41515;BME280;27247;48.020;16.720;2022-08-21T08:25:03;99493.25;;;21.12;81.91
41515;BME280;27247;48.020;16.720;2022-08-21T08:29:14;99483.91;;;21.02;82.39
41515;BME280;27247;48.020;16.720;2022-08-21T08:33:24;99472.84;;;21.09;83.02
41515;BME280;27247;48.020;16.720;2022-08-21T08:37:35;99477.00;;;21.17;83.00
41515;BME280;27247;48.020;16.720;2022-08-21T08:41:48;99483.41;;;21.27;82.86
41515;BME280;27247;48.020;16.720;2022-08-21T08:46:04;99484.41;;;21.43;82.34
41515;BME280;27247;48.020;16.720;2022-08-21T08:50:23;99482.19;;;21.40;81.40
41515;BME280;27247;48.020;16.720;2022-08-21T08:54:48;99482.34;;;21.28;82.49
41515;BME280;27247;48.020;16.720;2022-08-21T08:59:13;99484.59;;;21.37;82.29
41515;BME280;27247;48.020;16.720;2022-08-21T09:03:26;99483.22;;;21.34;82.57
41515;BME280;27247;48.020;16.720;2022-08-21T09:07:46;99489.78;;;21.38;83.93
41515;BME280;27247;48.020;16.720;2022-08-21T09:21:16;99464.66;;;21.80;82.10
41515;BME280;27247;48.020;16.720;2022-08-21T09:25:33;99473.75;;;21.63;82.50
41515;BME280;27247;48.020;16.720;2022-08-21T09:29:48;99479.50;;;21.94;82.36
41515;BME280;27247;48.020;16.720;2022-08-21T09:34:03;99486.06;;;21.98;81.47
41515;BME280;27247;48.020;16.720;2022-08-21T09:38:33;99474.09;;;21.99;82.62
41515;BME280;27247;48.020;16.720;2022-08-21T09:42:54;99469.09;;;21.86;82.12
41515;BME280;27247;48.020;16.720;2022-08-21T09:47:06;99459.44;;;21.73;83.21
41515;BME280;27247;48.020;16.720;2022-08-21T09:51:26;99459.72;;;21.77;83.01
41515;BME280;27247;48.020;16.720;2022-08-21T10:00:25;99452.91;;;22.33;81.08
41515;BME280;27247;48.020;16.720;2022-08-21T10:04:36;99456.00;;;22.89;78.76
41515;BME280;27247;48.020;16.720;2022-08-21T10:08:46;99448.53;;;22.79;79.54
41515;BME280;27247;48.020;16.720;2022-08-21T10:31:07;99454.66;;;21.58;81.44
41515;BME280;27247;48.020;16.720;2022-08-21T10:35:25;99462.41;;;21.45;80.89
41515;BME280;27247;48.020;16.720;2022-08-21T10:48:37;99448.09;;;21.27;83.10
41515;BME280;27247;48.020;16.720;2022-08-21T10:53:15;99448.69;;;21.34;82.47
41515;BME280;27247;48.020;16.720;2022-08-21T10:57:50;99460.72;;;21.39;83.73
41515;BME280;27247;48.020;16.720;2022-08-21T11:02:00;99445.16;;;21.34;83.74
41515;BME280;27247;48.020;16.720;2022-08-21T11:06:22;99442.13;;;21.30;82.86
41515;BME280;27247;48.020;16.720;2022-08-21T11:10:38;99451.09;;;21.31;84.01
41515;BME280;27247;48.020;16.720;2022-08-21T11:14:59;99446.56;;;21.15;84.09
41515;BME280;27247;48.020;16.720;2022-08-21T11:19:22;99441.56;;;21.28;84.47
41515;BME280;27247;48.020;16.720;2022-08-21T11:27:54;99442.91;;;21.26;85.05
41515;BME280;27247;48.020;16.720;2022-08-21T11:32:29;99457.81;;;21.23;84.91
41515;BME280;27247;48.020;16.720;2022-08-21T11:36:51;99450.03;;;21.32;84.91
41515;BME280;27247;48.020;16.720;2022-08-21T11:41:13;99442.97;;;21.31;84.96
41515;BME280;27247;48.020;16.720;2022-08-21T11:54:46;99436.06;;;21.77;81.81
41515;BME280;27247;48.020;16.720;2022-08-21T11:59:04;99451.59;;;22.04;81.63
41515;BME280;27247;48.020;16.720;2022-08-21T12:03:33;99446.63;;;22.01;79.66
41515;BME280;27247;48.020;16.720;2022-08-21T12:07:44;99441.72;;;21.97;80.38
41515;BME280;27247;48.020;16.720;2022-08-21T12:12:11;99446.91;;;21.99;79.95
41515;BME280;27247;48.020;16.720;2022-08-21T12:16:31;99444.31;;;22.14;79.58
41515;BME280;27247;48.020;16.720;2022-08-21T12:20:56;99442.78;;;22.28;79.30
41515;BME280;27247;48.020;16.720;2022-08-21T12:25:16;99436.78;;;22.26;79.16
41515;BME280;27247;48.020;16.720;2022-08-21T12:29:32;99435.03;;;22.10;78.80
41515;BME280;27247;48.020;16.720;2022-08-21T12:33:52;99437.84;;;21.88;79.18
41515;BME280;27247;48.020;16.720;2022-08-21T12:38:17;99427.09;;;21.77;79.89
41515;BME280;27247;48.020;16.720;2022-08-21T12:42:41;99420.25;;;21.74;78.48
41515;BME280;27247;48.020;16.720;2022-08-21T12:46:58;99424.94;;;21.79;78.53
41515;BME280;27247;48.020;16.720;2022-08-21T12:51:14;99431.91;;;21.70;78.45
41515;BME280;27247;48.020;16.720;2022-08-21T12:55:30;99427.78;;;21.62;77.51
41515;BME280;27247;48.020;16.720;2022-08-21T12:59:41;99429.63;;;21.56;76.04
41515;BME280;27247;48.020;16.720;2022-08-21T13:03:58;99446.50;;;21.58;72.11
41515;BME280;27247;48.020;16.720;2022-08-21T13:08:11;99440.72;;;21.82;71.32
41515;BME280;27247;48.020;16.720;2022-08-21T13:12:23;99449.47;;;21.84;73.15
41515;BME280;27247;48.020;16.720;2022-08-21T13:16:34;99452.44;;;21.82;77.46
41515;BME280;27247;48.020;16.720;2022-08-21T13:20:44;99448.44;;;21.63;78.56
41515;BME280;27247;48.020;16.720;2022-08-21T13:24:54;99449.38;;;21.47;79.41
41515;BME280;27247;48.020;16.720;2022-08-21T13:29:13;99457.91;;;21.55;79.67
41515;BME280;27247;48.020;16.720;2022-08-21T13:33:25;99457.22;;;21.43;78.88
41515;BME280;27247;48.020;16.720;2022-08-21T13:37:39;99470.31;;;21.46;79.78
41515;BME280;27247;48.020;16.720;2022-08-21T13:41:59;99463.63;;;21.32;79.99
41515;BME280;27247;48.020;16.720;2022-08-21T13:46:12;99462.19;;;21.24;80.72
41515;BME280;27247;48.020;16.720;2022-08-21T13:50:25;99461.22;;;21.14;80.52
41515;BME280;27247;48.020;16.720;2022-08-21T13:54:39;99456.22;;;21.06;80.69
41515;BME280;27247;48.020;16.720;2022-08-21T13:58:49;99461.91;;;21.04;80.80
41515;BME280;27247;48.020;16.720;2022-08-21T14:03:09;99459.00;;;20.89;80.57
41515;BME280;27247;48.020;16.720;2022-08-21T14:07:25;99462.03;;;20.92;81.50
41515;BME280;27247;48.020;16.720;2022-08-21T14:11:38;99466.47;;;20.98;81.02
41515;BME280;27247;48.020;16.720;2022-08-21T14:15:56;99441.38;;;20.91;81.18
41515;BME280;27247;48.020;16.720;2022-08-21T14:20:12;99474.16;;;20.85;81.28
41515;BME280;27247;48.020;16.720;2022-08-21T14:28:38;99456.63;;;20.76;81.73
41515;BME280;27247;48.020;16.720;2022-08-21T14:32:50;99464.19;;;20.73;81.85
41515;BME280;27247;48.020;16.720;2022-08-21T14:37:00;99463.31;;;20.68;81.97
41515;BME280;27247;48.020;16.720;2022-08-21T14:41:16;99463.63;;;20.71;82.40
41515;BME280;27247;48.020;16.720;2022-08-21T14:45:30;99463.13;;;20.75;82.14
41515;BME280;27247;48.020;16.720;2022-08-21T14:49:41;99456.81;;;20.69;82.20
41515;BME280;27247;48.020;16.720;2022-08-21T14:53:51;99465.53;;;20.71;82.00
41515;BME280;27247;48.020;16.720;2022-08-21T14:58:01;99460.16;;;20.76;81.86
41515;BME280;27247;48.020;16.720;2022-08-21T15:02:12;99452.94;;;20.82;81.34
41515;BME280;27247;48.020;16.720;2022-08-21T15:06:22;99462.97;;;20.81;80.88
41515;BME280;27247;48.020;16.720;2022-08-21T15:10:33;99451.03;;;20.82;79.92
41515;BME280;27247;48.020;16.720;2022-08-21T15:14:44;99460.59;;;20.85;78.64
41515;BME280;27247;48.020;16.720;2022-08-21T15:18:54;99457.03;;;20.84;78.62
41515;BME280;27247;48.020;16.720;2022-08-21T15:23:06;99462.31;;;20.74;78.49
41515;BME280;27247;48.020;16.720;2022-08-21T15:27:18;99463.88;;;20.70;78.78
41515;BME280;27247;48.020;16.720;2022-08-21T15:31:29;99472.22;;;20.63;79.21
41515;BME280;27247;48.020;16.720;2022-08-21T15:35:39;99464.09;;;20.47;79.85
41515;BME280;27247;48.020;16.720;2022-08-21T15:39:50;99466.00;;;20.46;79.59
41515;BME280;27247;48.020;16.720;2022-08-21T15:44:02;99463.09;;;20.53;78.76
41515;BME280;27247;48.020;16.720;2022-08-21T15:48:12;99458.81;;;20.57;78.72
41515;BME280;27247;48.020;16.720;2022-08-21T15:52:23;99462.53;;;20.51;78.91
41515;BME280;27247;48.020;16.720;2022-08-21T15:56:36;99459.88;;;20.56;78.83
41515;BME280;27247;48.020;16.720;2022-08-21T16:00:46;99453.94;;;20.59;78.08
41515;BME280;27247;48.020;16.720;2022-08-21T16:04:58;99453.78;;;20.65;77.77
41515;BME280;27247;48.020;16.720;2022-08-21T16:09:08;99436.97;;;20.68;77.65
41515;BME280;27247;48.020;16.720;2022-08-21T16:13:25;99453.34;;;20.73;77.52
41515;BME280;27247;48.020;16.720;2022-08-21T16:17:38;99443.03;;;20.76;76.96
41515;BME280;27247;48.020;16.720;2022-08-21T16:21:50;99445.75;;;20.76;76.75
41515;BME280;27247;48.020;16.720;2022-08-21T16:26:05;99443.22;;;20.69;76.66
41515;BME280;27247;48.020;16.720;2022-08-21T16:30:17;99441.16;;;20.76;76.42
41515;BME280;27247;48.020;16.720;2022-08-21T16:34:28;99435.97;;;20.75;76.72
41515;BME280;27247;48.020;16.720;2022-08-21T16:38:39;99441.47;;;20.80;76.09
41515;BME280;27247;48.020;16.720;2022-08-21T16:42:51;99441.72;;;20.78;75.92
41515;BME280;27247;48.020;16.720;2022-08-21T16:47:02;99440.34;;;20.76;75.77
41515;BME280;27247;48.020;16.720;2022-08-21T16:51:13;99433.56;;;20.78;76.30
41515;BME280;27247;48.020;16.720;2022-08-21T16:55:24;99441.66;;;20.73;76.49
41515;BME280;27247;48.020;16.720;2022-08-21T16:59:35;99432.44;;;20.74;76.77
41515;BME280;27247;48.020;16.720;2022-08-21T17:03:47;99442.28;;;20.80;76.81
41515;BME280;27247;48.020;16.720;2022-08-21T17:07:58;99444.69;;;20.77;76.97
41515;BME280;27247;48.020;16.720;2022-08-21T17:12:09;99445.50;;;20.77;77.35
41515;BME280;27247;48.020;16.720;2022-08-21T17:16:21;99449.31;;;20.76;77.42
41515;BME280;27247;48.020;16.720;2022-08-21T17:20:32;99444.31;;;20.68;77.21
41515;BME280;27247;48.020;16.720;2022-08-21T17:24:42;99435.72;;;20.76;77.25
41515;BME280;27247;48.020;16.720;2022-08-21T17:28:53;99450.31;;;20.70;77.11
41515;BME280;27247;48.020;16.720;2022-08-21T17:33:03;99450.31;;;20.70;76.86
41515;BME280;27247;48.020;16.720;2022-08-21T17:37:14;99453.84;;;20.70;76.66
41515;BME280;27247;48.020;16.720;2022-08-21T17:41:24;99451.31;;;20.64;76.25
41515;BME280;27247;48.020;16.720;2022-08-21T17:45:35;99454.09;;;20.69;75.17
41515;BME280;27247;48.020;16.720;2022-08-21T17:49:46;99462.16;;;20.64;74.65
41515;BME280;27247;48.020;16.720;2022-08-21T17:53:56;99455.66;;;20.65;74.09
41515;BME280;27247;48.020;16.720;2022-08-21T17:58:08;99456.75;;;20.64;74.08
41515;BME280;27247;48.020;16.720;2022-08-21T18:02:22;99445.56;;;20.60;73.59
41515;BME280;27247;48.020;16.720;2022-08-21T18:06:33;99453.69;;;20.60;73.81
41515;BME280;27247;48.020;16.720;2022-08-21T18:10:46;99465.38;;;20.61;73.63
41515;BME280;27247;48.020;16.720;2022-08-21T18:14:59;99456.41;;;20.60;73.82
41515;BME280;27247;48.020;16.720;2022-08-21T18:19:11;99458.81;;;20.57;73.85
41515;BME280;27247;48.020;16.720;2022-08-21T18:23:26;99466.97;;;20.57;74.05
41515;BME280;27247;48.020;16.720;2022-08-21T18:27:37;99463.16;;;20.58;73.94
41515;BME280;27247;48.020;16.720;2022-08-21T18:31:48;99467.47;;;20.54;73.77
41515;BME280;27247;48.020;16.720;2022-08-21T18:35:58;99468.53;;;20.53;74.30
41515;BME280;27247;48.020;16.720;2022-08-21T18:40:09;99478.50;;;20.47;74.48
41515;BME280;27247;48.020;16.720;2022-08-21T18:44:22;99490.09;;;20.43;74.72
41515;BME280;27247;48.020;16.720;2022-08-21T18:48:33;99482.03;;;20.14;75.92
41515;BME280;27247;48.020;16.720;2022-08-21T18:52:44;99503.13;;;19.79;79.08
41515;BME280;27247;48.020;16.720;2022-08-21T18:56:54;99500.16;;;19.40;83.97
41515;BME280;27247;48.020;16.720;2022-08-21T19:01:05;99506.97;;;19.02;85.89
41515;BME280;27247;48.020;16.720;2022-08-21T19:05:16;99506.91;;;18.74;86.95
41515;BME280;27247;48.020;16.720;2022-08-21T19:09:27;99501.81;;;18.66;86.21
41515;BME280;27247;48.020;16.720;2022-08-21T19:13:38;99503.19;;;18.57;86.48
41515;BME280;27247;48.020;16.720;2022-08-21T19:17:50;99514.72;;;18.40;87.26
41515;BME280;27247;48.020;16.720;2022-08-21T19:22:01;99520.59;;;18.26;88.11
41515;BME280;27247;48.020;16.720;2022-08-21T19:26:12;99511.50;;;18.08;89.04
41515;BME280;27247;48.020;16.720;2022-08-21T19:30:22;99529.03;;;18.06;90.70
41515;BME280;27247;48.020;16.720;2022-08-21T19:34:34;99524.47;;;17.76;94.26
41515;BME280;27247;48.020;16.720;2022-08-21T19:38:46;99528.41;;;17.44;97.97
41515;BME280;27247;48.020;16.720;2022-08-21T19:42:56;99527.75;;;17.30;100.00
41515;BME280;27247;48.020;16.720;2022-08-21T19:47:13;99526.09;;;17.11;100.00
41515;BME280;27247;48.020;16.720;2022-08-21T19:51:24;99537.81;;;16.86;100.00
41515;BME280;27247;48.020;16.720;2022-08-21T19:55:35;99535.25;;;16.73;100.00
41515;BME280;27247;48.020;16.720;2022-08-21T19:59:45;99541.75;;;16.66;100.00
41515;BME280;27247;48.020;16.720;2022-08-21T20:03:56;99536.56;;;16.57;100.00
41515;BME280;27247;48.020;16.720;2022-08-21T20:08:06;99532.81;;;16.58;100.00
41515;BME280;27247;48.020;16.720;2022-08-21T20:12:17;99542.75;;;16.65;100.00
41515;BME280;27247;48.020;16.720;2022-08-21T20:16:28;99532.59;;;16.67;100.00
41515;BME280;27247;48.020;16.720;2022-08-21T20:20:39;99535.09;;;16.61;100.00
41515;BME280;27247;48.020;16.720;2022-08-21T20:24:49;99528.69;;;16.56;100.00
41515;BME280;27247;48.020;16.720;2022-08-21T20:29:01;99522.25;;;16.57;100.00
41515;BME280;27247;48.020;16.720;2022-08-21T20:33:12;99519.63;;;16.50;100.00
41515;BME280;27247;48.020;16.720;2022-08-21T20:37:22;99534.38;;;16.48;100.00
41515;BME280;27247;48.020;16.720;2022-08-21T20:41:33;99522.81;;;16.41;100.00
41515;BME280;27247;48.020;16.720;2022-08-21T20:45:44;99519.13;;;16.35;100.00
41515;BME280;27247;48.020;16.720;2022-08-21T20:50:03;99520.25;;;16.27;100.00
41515;BME280;27247;48.020;16.720;2022-08-21T20:54:32;99510.13;;;16.23;100.00
41515;BME280;27247;48.020;16.720;2022-08-21T20:58:51;99512.16;;;16.27;100.00
41515;BME280;27247;48.020;16.720;2022-08-21T21:03:07;99511.09;;;16.28;100.00
41515;BME280;27247;48.020;16.720;2022-08-21T21:07:28;99505.28;;;16.32;100.00
41515;BME280;27247;48.020;16.720;2022-08-21T21:11:53;99503.19;;;16.34;100.00
41515;BME280;27247;48.020;16.720;2022-08-21T21:16:10;99506.69;;;16.34;100.00
41515;BME280;27247;48.020;16.720;2022-08-21T21:20:29;99490.53;;;16.34;100.00
41515;BME280;27247;48.020;16.720;2022-08-21T21:25:23;99499.22;;;16.36;100.00
41515;BME280;27247;48.020;16.720;2022-08-21T21:29:39;99496.75;;;16.35;100.00
41515;BME280;27247;48.020;16.720;2022-08-21T21:33:51;99488.81;;;16.40;100.00
41515;BME280;27247;48.020;16.720;2022-08-21T21:38:27;99486.34;;;16.38;100.00
41515;BME280;27247;48.020;16.720;2022-08-21T21:47:29;99492.56;;;16.39;100.00
41515;BME280;27247;48.020;16.720;2022-08-21T21:56:13;99493.53;;;16.44;100.00
41515;BME280;27247;48.020;16.720;2022-08-21T22:00:30;99489.19;;;16.43;100.00
41515;BME280;27247;48.020;16.720;2022-08-21T22:05:05;99483.72;;;16.50;100.00
41515;BME280;27247;48.020;16.720;2022-08-21T22:18:09;99474.97;;;16.54;100.00
41515;BME280;27247;48.020;16.720;2022-08-21T22:22:23;99473.94;;;16.55;100.00
41515;BME280;27247;48.020;16.720;2022-08-21T22:26:39;99478.72;;;16.53;100.00
41515;BME280;27247;48.020;16.720;2022-08-21T22:30:56;99483.44;;;16.58;100.00
41515;BME280;27247;48.020;16.720;2022-08-21T22:35:23;99472.88;;;16.56;100.00
41515;BME280;27247;48.020;16.720;2022-08-21T22:39:37;99480.38;;;16.54;100.00
41515;BME280;27247;48.020;16.720;2022-08-21T22:44:17;99473.47;;;16.58;100.00
41515;BME280;27247;48.020;16.720;2022-08-21T22:48:26;99472.28;;;16.54;100.00
41515;BME280;27247;48.020;16.720;2022-08-21T22:52:44;99468.97;;;16.52;100.00
41515;BME280;27247;48.020;16.720;2022-08-21T22:57:00;99453.47;;;16.48;100.00
41515;BME280;27247;48.020;16.720;2022-08-21T23:05:34;99460.50;;;16.49;100.00
41515;BME280;27247;48.020;16.720;2022-08-21T23:09:47;99445.16;;;16.49;100.00
41515;BME280;27247;48.020;16.720;2022-08-21T23:13:57;99437.06;;;16.49;100.00
41515;BME280;27247;48.020;16.720;2022-08-21T23:18:30;99438.53;;;16.45;100.00
41515;BME280;27247;48.020;16.720;2022-08-21T23:27:26;99433.81;;;16.41;100.00